Time;durP1;ratioP1;P1;durP2;ratioP2;P2;SDS_P1;SDS_P2;PMS_P1;PMS_P2;Temp;Humidity;BMP_temperature;BMP_pressure;BME280_temperature;BME280_humidity;BME280_pressure;Samples;Min_cycle;Max_cycle;Signal;HPM_P1;HPM_P2
2021/11/20 00:01:52;;;;;;;11.07;2.57;;;11.60;99.90;;;;;;5013049;28;20788;-82
2021/11/20 00:04:18;;;;;;;6.47;2.07;;;11.60;99.90;;;;;;5012531;28;20771;-81
2021/11/20 00:06:46;;;;;;;4.90;1.80;;;11.60;99.90;;;;;;5012986;28;20419;-82
2021/11/20 00:09:17;;;;;;;7.87;3.17;;;11.50;99.90;;;;;;5012879;28;20168;-82
2021/11/20 00:11:45;;;;;;;10.67;2.33;;;11.50;99.90;;;;;;5012760;28;20950;-82
2021/11/20 00:14:12;;;;;;;4.87;2.33;;;11.50;99.90;;;;;;5012154;28;20427;-82
2021/11/20 00:16:40;;;;;;;9.93;2.33;;;11.40;99.90;;;;;;5008246;28;20486;-81
2021/11/20 00:19:07;;;;;;;8.40;1.97;;;11.50;99.90;;;;;;5012376;28;20414;-81
2021/11/20 00:21:44;;;;;;;9.83;3.13;;;11.40;99.90;;;;;;5012808;28;20446;-82
2021/11/20 00:24:25;;;;;;;10.50;2.67;;;11.40;99.90;;;;;;5012787;28;20982;-82
2021/11/20 00:26:51;;;;;;;9.43;2.93;;;11.40;99.90;;;;;;5012718;28;20422;-81
2021/11/20 00:29:20;;;;;;;7.60;2.67;;;11.40;99.90;;;;;;5012628;28;20422;-82
2021/11/20 00:31:51;;;;;;;6.53;1.90;;;11.40;99.90;;;;;;5012705;28;20411;-82
2021/11/20 00:34:20;;;;;;;11.27;2.30;;;11.40;99.90;;;;;;5011893;28;20475;-82
2021/11/20 00:36:46;;;;;;;6.30;2.27;;;11.40;99.90;;;;;;5008165;28;20477;-82
2021/11/20 00:39:17;;;;;;;3.17;0.80;;;11.30;99.90;;;;;;5012582;28;20404;-81
2021/11/20 00:41:44;;;;;;;9.73;2.87;;;11.30;99.90;;;;;;5012720;28;20175;-81
2021/11/20 00:44:12;;;;;;;7.67;1.13;;;11.30;99.90;;;;;;5003711;28;20505;-82
2021/11/20 00:46:39;;;;;;;7.63;1.47;;;11.30;99.90;;;;;;4993042;28;20419;-81
2021/11/20 00:49:06;;;;;;;8.30;1.60;;;11.30;99.90;;;;;;4992588;28;20407;-81
2021/11/20 00:51:32;;;;;;;6.50;2.93;;;11.30;99.90;;;;;;4992946;28;20416;-81
2021/11/20 00:53:57;;;;;;;8.70;2.03;;;11.30;99.90;;;;;;4991604;28;20921;-82
2021/11/20 00:56:27;;;;;;;8.30;2.80;;;11.30;99.90;;;;;;5001426;28;20519;-81
2021/11/20 00:58:53;;;;;;;8.70;1.70;;;11.30;99.90;;;;;;4997760;28;20561;-82
2021/11/20 01:01:27;;;;;;;8.90;2.53;;;11.30;99.90;;;;;;4992720;28;20424;-81
2021/11/20 01:03:53;;;;;;;3.53;2.13;;;11.30;99.90;;;;;;4992668;28;20815;-81
2021/11/20 01:06:19;;;;;;;8.43;2.00;;;11.30;99.90;;;;;;4992874;28;20767;-81
2021/11/20 01:08:48;;;;;;;7.90;2.07;;;11.30;99.90;;;;;;4992740;28;20503;-82
2021/11/20 01:11:36;;;;;;;6.67;1.80;;;11.30;99.90;;;;;;4992887;28;20566;-82
2021/11/20 01:14:05;;;;;;;4.90;1.70;;;11.30;99.90;;;;;;4992738;28;20515;-82
2021/11/20 01:16:32;;;;;;;13.17;3.13;;;11.30;99.90;;;;;;4992693;28;20472;-81
2021/11/20 01:19:00;;;;;;;7.27;2.53;;;11.30;99.90;;;;;;4998265;28;20490;-83
2021/11/20 01:21:25;;;;;;;7.87;2.00;;;11.20;99.90;;;;;;4992749;28;20854;-82
2021/11/20 01:23:51;;;;;;;8.37;2.60;;;11.30;99.90;;;;;;4992655;28;20420;-82
2021/11/20 01:26:19;;;;;;;4.80;2.37;;;11.20;99.90;;;;;;4994566;28;20174;-82
2021/11/20 01:28:49;;;;;;;7.50;3.10;;;11.30;99.90;;;;;;4996188;28;20223;-82
2021/11/20 01:31:16;;;;;;;6.50;2.40;;;11.30;99.90;;;;;;4995968;28;20420;-82
2021/11/20 01:33:43;;;;;;;6.93;1.80;;;11.20;99.90;;;;;;4995287;28;20437;-82
2021/11/20 01:36:11;;;;;;;11.40;3.33;;;11.30;99.90;;;;;;4999341;28;20495;-82
2021/11/20 01:38:37;;;;;;;6.50;2.80;;;11.20;99.90;;;;;;4995905;28;20474;-82
2021/11/20 01:41:03;;;;;;;5.57;2.00;;;11.20;99.90;;;;;;4994532;28;20417;-82
2021/11/20 01:43:29;;;;;;;4.77;2.20;;;11.20;99.90;;;;;;5004417;28;20460;-82
2021/11/20 01:45:59;;;;;;;8.50;2.53;;;11.20;99.90;;;;;;4995939;28;20413;-82
2021/11/20 01:48:51;;;;;;;5.10;1.73;;;11.30;99.90;;;;;;4995551;28;20252;-82
2021/11/20 01:51:43;;;;;;;6.80;2.20;;;11.30;99.90;;;;;;4995695;28;20408;-81
2021/11/20 01:54:43;;;;;;;5.63;2.27;;;11.20;99.90;;;;;;4992645;28;20431;-82
2021/11/20 01:57:38;;;;;;;6.73;2.30;;;11.30;99.90;;;;;;5010428;28;20478;-82
2021/11/20 02:00:16;;;;;;;13.17;2.67;;;11.20;99.90;;;;;;5015199;28;20522;-82
2021/11/20 02:03:09;;;;;;;8.63;3.30;;;11.20;99.90;;;;;;5014873;28;20938;-82
2021/11/20 02:05:56;;;;;;;7.03;2.37;;;11.30;99.90;;;;;;5014918;28;20427;-83
2021/11/20 02:08:38;;;;;;;5.60;2.10;;;11.30;99.90;;;;;;5013084;28;20396;-82
2021/11/20 02:11:13;;;;;;;7.30;2.37;;;11.30;99.90;;;;;;4995406;28;20415;-83
2021/11/20 02:13:39;;;;;;;7.27;2.33;;;11.30;99.90;;;;;;4994311;28;20502;-82
2021/11/20 02:16:10;;;;;;;6.17;2.63;;;11.30;99.90;;;;;;4994148;28;20558;-82
2021/11/20 02:18:41;;;;;;;7.23;2.33;;;11.30;99.90;;;;;;4993936;28;20730;-82
2021/11/20 02:21:34;;;;;;;7.83;2.53;;;11.20;99.90;;;;;;4995596;28;20909;-82
2021/11/20 02:24:00;;;;;;;6.33;2.60;;;11.20;99.90;;;;;;4994084;28;20510;-82
2021/11/20 02:26:25;;;;;;;10.00;3.40;;;11.30;99.90;;;;;;4994682;28;20447;-83
2021/11/20 02:28:52;;;;;;;4.97;2.53;;;11.20;99.90;;;;;;4996099;28;20411;-82
2021/11/20 02:31:18;;;;;;;8.53;2.80;;;11.20;99.90;;;;;;4993836;28;20207;-83
2021/11/20 02:33:46;;;;;;;8.70;3.00;;;11.20;99.90;;;;;;4994854;28;20769;-83
2021/11/20 02:36:14;;;;;;;8.70;3.00;;;11.20;99.90;;;;;;5014325;28;21033;-84
2021/11/20 02:38:44;;;;;;;14.00;4.43;;;11.20;99.90;;;;;;5013968;28;20432;-84
2021/11/20 02:41:14;;;;;;;7.53;2.90;;;11.20;99.90;;;;;;5014515;28;20414;-84
2021/11/20 02:43:42;;;;;;;10.93;3.73;;;11.20;99.90;;;;;;5014430;28;20960;-83
2021/11/20 02:46:10;;;;;;;7.93;3.47;;;11.20;99.90;;;;;;4996991;28;20420;-83
2021/11/20 02:48:36;;;;;;;10.63;3.80;;;11.20;99.90;;;;;;5014128;28;20414;-83
2021/11/20 02:51:37;;;;;;;7.40;3.77;;;11.20;99.90;;;;;;5005057;28;20955;-84
2021/11/20 02:54:13;;;;;;;9.23;3.17;;;11.20;99.90;;;;;;4963388;28;20182;-85
2021/11/20 02:56:45;;;;;;;11.03;3.93;;;11.20;99.90;;;;;;5005482;28;20565;-83
2021/11/20 02:59:11;;;;;;;7.03;3.13;;;11.20;99.90;;;;;;4996880;28;20424;-85
2021/11/20 03:01:40;;;;;;;5.67;2.60;;;11.20;99.90;;;;;;5014421;28;20431;-83
2021/11/20 03:04:08;;;;;;;6.23;3.20;;;11.20;99.90;;;;;;5014080;28;20508;-83
2021/11/20 03:06:34;;;;;;;7.00;3.83;;;11.20;99.90;;;;;;5014177;28;20423;-85
2021/11/20 03:09:00;;;;;;;7.27;3.03;;;11.20;99.90;;;;;;5014112;28;20411;-84
2021/11/20 03:11:27;;;;;;;10.60;3.67;;;11.20;99.90;;;;;;5013958;28;20524;-83
2021/11/20 03:13:54;;;;;;;13.37;3.70;;;11.20;99.90;;;;;;4996341;28;20446;-83
2021/11/20 03:16:21;;;;;;;10.63;4.77;;;11.20;99.90;;;;;;5013803;28;20489;-82
2021/11/20 03:18:47;;;;;;;8.90;4.20;;;11.10;99.90;;;;;;5013452;28;20793;-84
2021/11/20 03:21:14;;;;;;;9.57;3.97;;;11.10;99.90;;;;;;5013742;28;20403;-82
2021/11/20 03:23:45;;;;;;;10.23;4.17;;;11.10;99.90;;;;;;5013714;28;20204;-83
2021/11/20 03:26:10;;;;;;;10.83;3.50;;;11.10;99.90;;;;;;4996133;28;20419;-82
2021/11/20 03:28:36;;;;;;;10.77;4.17;;;11.20;99.90;;;;;;4993934;28;20965;-83
2021/11/20 03:31:02;;;;;;;16.00;3.60;;;11.10;99.90;;;;;;4994040;28;20187;-83
2021/11/20 03:33:28;;;;;;;12.33;4.33;;;11.10;99.90;;;;;;4993707;28;20227;-82
2021/11/20 03:35:54;;;;;;;6.20;3.30;;;11.10;99.90;;;;;;4993921;28;20446;-83
2021/11/20 03:38:20;;;;;;;12.93;3.87;;;11.10;99.90;;;;;;4993988;28;20256;-82
2021/11/20 03:40:45;;;;;;;14.40;2.90;;;11.10;99.90;;;;;;4993889;28;20178;-82
2021/11/20 03:43:11;;;;;;;10.00;2.93;;;11.10;99.90;;;;;;4993750;28;20271;-82
2021/11/20 03:45:37;;;;;;;13.27;3.40;;;11.10;99.90;;;;;;4993868;28;20259;-83
2021/11/20 03:48:05;;;;;;;11.57;4.47;;;11.10;99.90;;;;;;4993388;28;20424;-83
2021/11/20 03:50:31;;;;;;;10.33;4.00;;;11.10;99.90;;;;;;4993014;28;20439;-83
2021/11/20 03:52:57;;;;;;;11.97;3.80;;;11.10;99.90;;;;;;4993712;28;20909;-83
2021/11/20 03:55:26;;;;;;;12.70;3.97;;;11.20;99.90;;;;;;4994179;28;20180;-83
2021/11/20 03:57:53;;;;;;;9.63;3.53;;;11.20;99.90;;;;;;5013146;28;20206;-83
2021/11/20 04:00:23;;;;;;;9.77;5.30;;;11.20;99.90;;;;;;5014851;28;20421;-81
2021/11/20 04:02:49;;;;;;;11.87;4.33;;;11.20;99.90;;;;;;5012906;28;20418;-83
2021/11/20 04:05:18;;;;;;;10.03;5.30;;;11.30;99.90;;;;;;4993932;28;20459;-81
2021/11/20 04:07:43;;;;;;;23.30;6.10;;;11.30;99.90;;;;;;4992164;28;20423;-81
2021/11/20 04:10:10;;;;;;;13.67;4.00;;;11.30;99.90;;;;;;4993410;28;20780;-81
2021/11/20 04:12:37;;;;;;;12.00;4.33;;;11.30;99.90;;;;;;4993443;28;20223;-83
2021/11/20 04:15:06;;;;;;;10.47;3.33;;;11.30;99.90;;;;;;4993443;28;20408;-81
2021/11/20 04:17:31;;;;;;;12.47;3.70;;;11.30;99.90;;;;;;4992912;28;20488;-83
2021/11/20 04:19:57;;;;;;;9.43;3.57;;;11.30;99.90;;;;;;4993303;28;20416;-81
2021/11/20 04:22:22;;;;;;;14.90;5.93;;;11.30;99.90;;;;;;4993330;28;20169;-83
2021/11/20 04:24:48;;;;;;;9.60;4.40;;;11.30;99.90;;;;;;4992088;28;20370;-82
2021/11/20 04:27:14;;;;;;;12.90;4.87;;;11.30;99.90;;;;;;4993425;28;20177;-81
2021/11/20 04:29:40;;;;;;;9.53;4.27;;;11.20;99.90;;;;;;4993323;28;20634;-82
2021/11/20 04:32:06;;;;;;;13.27;4.77;;;11.30;99.90;;;;;;4993304;28;20474;-83
2021/11/20 04:34:32;;;;;;;13.97;4.43;;;11.20;99.90;;;;;;5003819;28;20547;-81
2021/11/20 04:36:58;;;;;;;9.77;4.40;;;11.20;99.90;;;;;;5012738;28;20951;-81
2021/11/20 04:39:23;;;;;;;10.80;5.37;;;11.20;99.90;;;;;;5012964;28;20551;-83
2021/11/20 04:41:49;;;;;;;13.10;4.13;;;11.20;99.90;;;;;;5013051;28;20188;-81
2021/11/20 04:44:15;;;;;;;8.10;3.90;;;11.20;99.90;;;;;;5012788;28;20169;-81
2021/11/20 04:46:41;;;;;;;11.27;5.10;;;11.20;99.90;;;;;;5012818;28;20708;-82
2021/11/20 04:49:07;;;;;;;16.20;4.40;;;11.20;99.90;;;;;;5012430;28;20496;-82
2021/11/20 04:51:33;;;;;;;10.07;4.53;;;11.20;99.90;;;;;;5012643;28;20430;-81
2021/11/20 04:53:59;;;;;;;8.40;4.77;;;11.20;99.90;;;;;;5012728;28;20579;-81
2021/11/20 04:56:26;;;;;;;11.83;3.37;;;11.20;99.90;;;;;;5012548;28;20517;-81
2021/11/20 04:58:53;;;;;;;15.53;5.20;;;11.20;99.90;;;;;;5012727;28;20412;-81
2021/11/20 05:01:23;;;;;;;13.70;4.00;;;11.20;99.90;;;;;;5014641;28;20426;-82
2021/11/20 05:03:51;;;;;;;11.23;4.40;;;11.20;99.90;;;;;;5015985;28;20462;-82
2021/11/20 05:06:19;;;;;;;17.17;5.90;;;11.20;99.90;;;;;;5016331;28;20415;-81
2021/11/20 05:08:44;;;;;;;9.47;4.37;;;11.20;99.90;;;;;;4998681;28;20415;-83
2021/11/20 05:11:11;;;;;;;13.07;5.20;;;11.20;99.90;;;;;;5016289;28;20894;-83
2021/11/20 05:13:37;;;;;;;12.27;5.57;;;11.30;99.90;;;;;;4998626;28;20180;-83
2021/11/20 05:16:03;;;;;;;12.43;5.47;;;11.20;99.90;;;;;;5016030;28;20504;-82
2021/11/20 05:18:29;;;;;;;17.67;5.80;;;11.30;99.90;;;;;;5015719;28;20575;-82
2021/11/20 05:20:59;;;;;;;12.67;5.70;;;11.30;99.90;;;;;;5016067;28;20176;-83
2021/11/20 05:23:25;;;;;;;15.37;6.60;;;11.20;99.90;;;;;;5016067;28;20423;-82
2021/11/20 05:25:51;;;;;;;16.03;5.30;;;11.30;99.90;;;;;;5015810;28;20495;-82
2021/11/20 05:28:17;;;;;;;12.23;4.20;;;11.20;99.90;;;;;;5015842;28;20833;-83
2021/11/20 05:30:47;;;;;;;13.00;5.93;;;11.20;99.90;;;;;;5015724;28;20518;-83
2021/11/20 05:33:27;;;;;;;12.07;5.57;;;11.30;99.90;;;;;;5015506;28;20402;-82
2021/11/20 05:35:53;;;;;;;10.13;5.27;;;11.20;99.90;;;;;;5015630;28;20890;-82
2021/11/20 05:38:19;;;;;;;12.73;5.80;;;11.20;99.90;;;;;;5015725;28;20446;-82
2021/11/20 05:40:45;;;;;;;19.33;6.37;;;11.20;99.90;;;;;;5015698;28;20228;-83
2021/11/20 05:43:14;;;;;;;8.57;6.43;;;11.20;99.90;;;;;;5015289;28;20480;-81
2021/11/20 05:45:43;;;;;;;14.03;7.03;;;11.10;99.90;;;;;;5015255;28;20204;-82
2021/11/20 05:48:09;;;;;;;13.53;7.10;;;11.10;99.90;;;;;;5015263;28;20421;-83
2021/11/20 05:50:36;;;;;;;17.23;7.23;;;11.20;99.90;;;;;;5015456;28;20432;-82
2021/11/20 05:53:08;;;;;;;18.30;7.00;;;11.20;99.90;;;;;;5015215;28;20225;-80
2021/11/20 05:55:33;;;;;;;12.17;6.53;;;11.10;99.90;;;;;;5015249;28;20418;-81
2021/11/20 05:57:59;;;;;;;13.40;7.40;;;11.20;99.90;;;;;;5015366;28;20584;-81
2021/11/20 06:00:29;;;;;;;17.30;7.03;;;11.10;99.90;;;;;;5015264;28;20164;-82
2021/11/20 06:02:57;;;;;;;18.20;7.17;;;11.10;99.90;;;;;;5014873;28;20171;-81
2021/11/20 06:05:25;;;;;;;15.40;7.17;;;11.10;99.90;;;;;;5015408;28;20993;-83
2021/11/20 06:07:51;;;;;;;20.87;6.83;;;11.10;99.90;;;;;;5015082;28;20756;-83
2021/11/20 06:10:22;;;;;;;11.67;7.03;;;11.10;99.90;;;;;;5015060;28;20510;-82
2021/11/20 06:12:48;;;;;;;14.00;6.50;;;11.10;99.90;;;;;;5013919;28;20292;-82
2021/11/20 06:15:14;;;;;;;13.73;7.30;;;11.20;99.90;;;;;;5014660;28;20458;-81
2021/11/20 06:17:43;;;;;;;8.90;6.43;;;11.20;99.90;;;;;;5014521;28;20212;-83
2021/11/20 06:20:10;;;;;;;13.80;6.43;;;11.20;99.90;;;;;;5014960;28;20420;-81
2021/11/20 06:22:36;;;;;;;10.30;7.93;;;11.10;99.90;;;;;;5014845;28;20774;-82
2021/11/20 06:25:02;;;;;;;10.60;7.07;;;11.10;99.90;;;;;;5014802;28;20437;-82
2021/11/20 06:27:28;;;;;;;16.60;7.00;;;11.10;99.90;;;;;;5014622;28;20175;-82
2021/11/20 06:29:53;;;;;;;11.50;6.80;;;11.10;99.90;;;;;;5014582;28;20439;-82
2021/11/20 06:32:19;;;;;;;8.80;7.07;;;11.10;99.90;;;;;;5014352;28;20175;-82
2021/11/20 06:34:45;;;;;;;10.37;7.40;;;11.10;99.90;;;;;;5014624;28;20183;-82
2021/11/20 06:37:11;;;;;;;15.03;7.60;;;11.10;99.90;;;;;;5014605;28;20204;-82
2021/11/20 06:39:38;;;;;;;10.27;6.63;;;11.10;99.90;;;;;;5014515;28;20927;-82
2021/11/20 06:42:05;;;;;;;12.20;6.10;;;11.10;99.90;;;;;;5014593;28;20196;-84
2021/11/20 06:44:32;;;;;;;10.93;6.60;;;11.10;99.90;;;;;;5014494;28;20908;-82
2021/11/20 06:46:57;;;;;;;14.63;6.97;;;11.10;99.90;;;;;;5014280;28;20423;-82
2021/11/20 06:49:24;;;;;;;13.60;6.73;;;11.10;99.90;;;;;;5014162;28;20409;-83
2021/11/20 06:51:49;;;;;;;14.60;7.70;;;11.10;99.90;;;;;;5014287;28;20743;-82
2021/11/20 06:54:15;;;;;;;15.50;7.37;;;11.10;99.90;;;;;;5014234;28;20502;-83
2021/11/20 06:56:47;;;;;;;14.50;7.23;;;11.10;99.90;;;;;;5013956;28;20231;-82
2021/11/20 06:59:19;;;;;;;11.40;6.70;;;11.20;99.90;;;;;;5014370;28;20806;-82
2021/11/20 07:01:47;;;;;;;12.53;6.17;;;11.10;99.90;;;;;;4996572;28;20494;-82
2021/11/20 07:04:17;;;;;;;17.20;7.13;;;11.10;99.90;;;;;;5013665;28;20410;-81
2021/11/20 07:06:47;;;;;;;17.20;7.27;;;11.10;99.90;;;;;;5014157;28;20954;-82
2021/11/20 07:09:13;;;;;;;15.50;7.30;;;11.20;99.90;;;;;;5013759;28;20415;-81
2021/11/20 07:11:39;;;;;;;9.03;5.90;;;11.10;99.90;;;;;;5013999;28;20427;-80
2021/11/20 07:14:08;;;;;;;13.83;6.60;;;11.10;99.90;;;;;;5013927;28;20168;-82
2021/11/20 07:16:34;;;;;;;14.60;8.60;;;11.10;99.90;;;;;;5013784;28;20466;-81
2021/11/20 07:19:01;;;;;;;11.87;7.33;;;11.20;99.90;;;;;;5013576;28;20494;-81
2021/11/20 07:21:27;;;;;;;15.80;7.97;;;11.20;99.90;;;;;;4996166;28;20770;-81
2021/11/20 07:23:58;;;;;;;15.80;6.60;;;11.20;99.90;;;;;;5013524;28;20414;-81
2021/11/20 07:26:25;;;;;;;14.40;6.70;;;11.20;99.90;;;;;;5013776;28;20479;-82
2021/11/20 07:28:52;;;;;;;17.97;8.10;;;11.20;99.90;;;;;;4995965;28;20414;-82
2021/11/20 07:31:19;;;;;;;16.10;7.30;;;11.20;99.90;;;;;;5013455;28;20455;-82
2021/11/20 07:33:45;;;;;;;12.63;7.40;;;11.20;99.90;;;;;;5013020;28;20415;-82
2021/11/20 07:36:12;;;;;;;13.47;6.47;;;11.20;99.90;;;;;;5013151;28;20553;-81
2021/11/20 07:38:42;;;;;;;15.80;8.57;;;11.20;99.90;;;;;;5013357;28;20846;-81
2021/11/20 07:41:08;;;;;;;12.27;6.53;;;11.20;99.90;;;;;;5013259;28;20434;-81
2021/11/20 07:43:35;;;;;;;13.90;7.43;;;11.20;99.90;;;;;;5013515;28;20430;-81
2021/11/20 07:46:03;;;;;;;12.47;8.87;;;11.20;99.90;;;;;;4995789;28;20464;-81
2021/11/20 07:48:30;;;;;;;12.77;8.10;;;11.20;99.90;;;;;;5012798;28;20509;-81
2021/11/20 07:50:57;;;;;;;11.47;7.60;;;11.20;99.90;;;;;;5013275;28;20508;-82
2021/11/20 07:53:24;;;;;;;10.17;7.23;;;11.20;99.90;;;;;;5013304;28;20552;-82
2021/11/20 07:55:50;;;;;;;14.10;7.63;;;11.20;99.90;;;;;;5012845;28;20898;-81
2021/11/20 07:58:20;;;;;;;16.17;7.60;;;11.20;99.90;;;;;;5013079;28;20418;-83
2021/11/20 08:00:47;;;;;;;12.23;7.00;;;11.20;99.90;;;;;;5013013;28;20494;-82
2021/11/20 08:03:13;;;;;;;10.47;6.10;;;11.20;99.90;;;;;;5012735;28;20423;-80
2021/11/20 08:05:43;;;;;;;12.37;7.30;;;11.20;99.90;;;;;;5012986;28;20519;-82
2021/11/20 08:08:11;;;;;;;19.17;8.10;;;11.20;99.90;;;;;;5012905;28;20462;-82
2021/11/20 08:10:38;;;;;;;12.33;7.30;;;11.20;99.90;;;;;;5013063;28;20410;-81
2021/11/20 08:13:04;;;;;;;12.43;7.23;;;11.20;99.90;;;;;;5013054;28;20468;-81
2021/11/20 08:15:31;;;;;;;18.73;7.50;;;11.20;99.90;;;;;;5012994;28;20478;-81
2021/11/20 08:17:57;;;;;;;12.97;7.40;;;11.30;99.90;;;;;;5012522;28;20462;-81
2021/11/20 08:20:26;;;;;;;11.83;5.83;;;11.30;99.90;;;;;;4995477;28;20429;-80
2021/11/20 08:22:55;;;;;;;11.97;6.73;;;11.30;99.90;;;;;;5012753;28;20427;-81
2021/11/20 08:25:24;;;;;;;12.80;7.13;;;11.30;99.90;;;;;;5012811;28;20422;-81
2021/11/20 08:27:51;;;;;;;11.80;6.10;;;11.40;99.90;;;;;;5012764;28;20477;-81
2021/11/20 08:30:22;;;;;;;11.20;5.97;;;11.30;99.90;;;;;;5012815;28;20827;-81
2021/11/20 08:32:50;;;;;;;13.63;7.00;;;11.30;99.90;;;;;;5012418;28;20414;-81
2021/11/20 08:35:19;;;;;;;9.73;6.17;;;11.40;99.90;;;;;;4995366;28;20822;-82
2021/11/20 08:37:45;;;;;;;13.23;6.33;;;11.30;99.90;;;;;;5016385;28;20961;-81
2021/11/20 08:40:14;;;;;;;11.83;6.90;;;11.30;99.90;;;;;;5016597;28;20418;-83
2021/11/20 08:42:41;;;;;;;10.07;6.40;;;11.30;99.90;;;;;;4998977;28;20513;-83
2021/11/20 08:45:11;;;;;;;10.33;6.60;;;11.40;99.90;;;;;;5008451;28;20414;-80
2021/11/20 08:47:37;;;;;;;11.20;5.97;;;11.30;99.90;;;;;;5006656;28;20433;-82
2021/11/20 08:50:05;;;;;;;8.90;6.30;;;11.40;99.90;;;;;;4998773;28;20440;-80
2021/11/20 08:52:31;;;;;;;11.67;7.23;;;11.40;99.90;;;;;;5016400;28;20417;-83
2021/11/20 08:54:57;;;;;;;15.10;6.87;;;11.40;99.90;;;;;;5016419;28;20441;-81
2021/11/20 08:57:23;;;;;;;13.70;6.87;;;11.40;99.90;;;;;;5013576;28;20230;-83
2021/11/20 08:59:52;;;;;;;12.00;8.13;;;11.40;99.90;;;;;;5006156;28;20190;-83
2021/11/20 09:02:37;;;;;;;12.43;7.73;;;11.40;99.90;;;;;;4996160;28;20422;-82
2021/11/20 09:05:15;;;;;;;10.07;6.00;;;11.40;99.90;;;;;;4996267;28;20431;-82
2021/11/20 09:07:53;;;;;;;15.20;5.90;;;11.50;99.90;;;;;;5006033;28;20428;-83
2021/11/20 09:10:31;;;;;;;10.37;5.77;;;11.40;99.90;;;;;;5011632;28;20440;-82
2021/11/20 09:13:15;;;;;;;12.90;7.23;;;11.50;99.90;;;;;;4996686;28;20417;-82
2021/11/20 09:16:00;;;;;;;9.30;6.07;;;11.50;99.90;;;;;;4996191;28;20771;-82
2021/11/20 09:18:28;;;;;;;13.40;5.70;;;11.50;99.90;;;;;;4994892;28;20496;-82
2021/11/20 09:20:55;;;;;;;11.60;6.63;;;11.60;99.90;;;;;;5010237;28;20429;-82
2021/11/20 09:23:23;;;;;;;8.80;6.27;;;11.60;99.90;;;;;;4994956;28;20434;-81
2021/11/20 09:25:49;;;;;;;9.07;4.57;;;11.60;99.90;;;;;;4994832;28;20423;-81
2021/11/20 09:28:17;;;;;;;10.40;6.33;;;11.70;99.90;;;;;;4997690;28;20583;-83
2021/11/20 09:30:46;;;;;;;9.03;5.37;;;11.70;99.90;;;;;;4996227;28;20926;-82
2021/11/20 09:33:13;;;;;;;11.77;7.30;;;11.70;99.90;;;;;;4995541;28;20464;-81
2021/11/20 09:35:41;;;;;;;12.53;6.50;;;11.80;99.90;;;;;;4996049;28;20420;-83
2021/11/20 09:38:06;;;;;;;12.53;5.37;;;11.80;99.90;;;;;;4979247;28;20473;-81
2021/11/20 09:40:37;;;;;;;7.13;5.50;;;11.80;99.90;;;;;;5001595;28;20974;-81
2021/11/20 09:43:05;;;;;;;9.30;5.70;;;11.90;99.90;;;;;;5004908;28;20189;-81
2021/11/20 09:45:43;;;;;;;10.30;5.13;;;11.90;99.90;;;;;;4995768;28;20418;-82
2021/11/20 09:48:18;;;;;;;8.40;4.90;;;12.00;99.90;;;;;;4994559;28;20430;-82
2021/11/20 09:50:54;;;;;;;8.83;4.17;;;12.00;99.90;;;;;;4992192;28;20883;-82
2021/11/20 09:53:20;;;;;;;9.60;4.87;;;12.00;99.90;;;;;;4995896;28;20752;-81
2021/11/20 09:55:56;;;;;;;9.60;5.00;;;12.00;99.90;;;;;;4986930;28;20470;-82
2021/11/20 09:58:44;;;;;;;7.73;5.57;;;12.00;99.90;;;;;;4990330;28;20441;-83
2021/11/20 10:01:46;;;;;;;7.10;4.67;;;12.10;99.90;;;;;;4994317;28;20424;-83
2021/11/20 10:04:16;;;;;;;8.50;4.30;;;12.10;99.90;;;;;;4995451;28;20446;-83
2021/11/20 10:06:46;;;;;;;9.33;5.10;;;12.10;99.90;;;;;;4985195;28;20487;-83
2021/11/20 10:09:20;;;;;;;5.03;4.00;;;12.10;99.90;;;;;;4984288;28;20525;-83
2021/11/20 10:11:51;;;;;;;6.87;4.60;;;12.10;99.90;;;;;;4995467;28;20475;-83
2021/11/20 10:14:34;;;;;;;5.57;3.40;;;12.10;99.90;;;;;;4995438;28;20462;-82
2021/11/20 10:17:30;;;;;;;6.63;4.77;;;12.10;99.90;;;;;;4994722;28;20999;-82
2021/11/20 10:20:11;;;;;;;5.33;4.10;;;12.20;99.90;;;;;;4995100;28;20411;-82
2021/11/20 10:23:10;;;;;;;5.00;3.43;;;12.20;99.90;;;;;;4995099;28;20483;-82
2021/11/20 10:26:13;;;;;;;6.30;3.73;;;12.20;99.90;;;;;;4978694;28;20491;-82
2021/11/20 10:28:57;;;;;;;6.10;4.00;;;12.20;99.90;;;;;;4991238;28;20424;-83
2021/11/20 10:31:33;;;;;;;7.27;4.00;;;12.20;99.90;;;;;;4981673;28;20402;-82
2021/11/20 10:34:06;;;;;;;7.37;4.60;;;12.10;99.90;;;;;;4981317;28;20564;-83
2021/11/20 10:36:38;;;;;;;8.80;4.80;;;12.10;99.90;;;;;;5000185;28;20465;-84
2021/11/20 10:39:18;;;;;;;5.07;3.83;;;12.10;99.90;;;;;;4980249;28;20433;-84
2021/11/20 10:42:07;;;;;;;8.60;3.70;;;12.10;99.90;;;;;;4975473;28;20417;-82
2021/11/20 10:44:52;;;;;;;4.97;3.77;;;12.10;99.90;;;;;;4975328;28;20898;-82
2021/11/20 10:47:32;;;;;;;5.87;2.77;;;12.10;99.90;;;;;;4973691;28;20939;-82
2021/11/20 10:50:15;;;;;;;6.97;3.80;;;12.10;99.90;;;;;;4975456;28;20512;-82
2021/11/20 10:53:17;;;;;;;7.53;3.87;;;12.10;99.90;;;;;;4973999;28;20414;-82
2021/11/20 10:56:17;;;;;;;6.63;3.67;;;12.00;99.90;;;;;;4974948;28;20977;-82
2021/11/20 10:58:57;;;;;;;9.13;3.90;;;12.00;99.90;;;;;;4974713;28;20846;-81
2021/11/20 11:01:56;;;;;;;5.73;4.10;;;11.90;99.90;;;;;;4974728;28;20412;-81
2021/11/20 11:04:39;;;;;;;7.30;4.40;;;11.90;99.90;;;;;;4975030;28;20420;-82
2021/11/20 11:07:16;;;;;;;9.03;4.50;;;11.90;99.90;;;;;;4974931;28;20420;-82
2021/11/20 11:09:53;;;;;;;9.20;3.80;;;11.80;99.90;;;;;;4974839;28;20505;-82
2021/11/20 11:12:37;;;;;;;6.13;3.50;;;11.90;99.90;;;;;;4974882;28;20500;-82
2021/11/20 11:15:15;;;;;;;5.00;3.63;;;11.80;99.90;;;;;;4974768;28;20782;-82
2021/11/20 11:18:14;;;;;;;5.50;4.10;;;11.90;99.90;;;;;;4974273;28;20569;-82
2021/11/20 11:21:30;;;;;;;4.90;3.00;;;11.90;99.90;;;;;;4974564;28;20815;-82
2021/11/20 11:24:41;;;;;;;5.87;3.83;;;11.90;99.90;;;;;;4896248;29;20417;-82
2021/11/20 11:27:14;;;;;;;5.90;2.60;;;11.90;99.90;;;;;;4880732;29;20432;-82
2021/11/20 11:29:59;;;;;;;5.43;3.80;;;11.90;99.90;;;;;;4967284;28;20433;-82
2021/11/20 11:32:30;;;;;;;4.83;4.10;;;11.80;99.90;;;;;;4974316;28;20409;-82
2021/11/20 11:35:18;;;;;;;4.23;3.10;;;11.90;99.90;;;;;;4974626;28;20447;-82
2021/11/20 11:38:13;;;;;;;6.40;3.50;;;11.80;99.90;;;;;;4974511;28;20468;-82
2021/11/20 11:41:02;;;;;;;5.97;3.10;;;11.80;99.90;;;;;;4974437;28;20404;-82
2021/11/20 11:43:42;;;;;;;8.50;3.97;;;11.80;99.90;;;;;;4960458;28;20422;-82
2021/11/20 11:46:14;;;;;;;5.10;4.13;;;11.80;99.90;;;;;;4974133;28;20413;-81
2021/11/20 11:48:57;;;;;;;7.00;3.50;;;11.80;99.90;;;;;;4974006;28;20937;-82
2021/11/20 11:51:54;;;;;;;11.83;4.83;;;11.70;99.90;;;;;;4956771;28;20774;-82
2021/11/20 11:54:42;;;;;;;8.63;4.40;;;11.70;99.90;;;;;;4947028;28;20422;-82
2021/11/20 11:57:14;;;;;;;8.40;4.13;;;11.70;99.90;;;;;;4973809;28;20490;-82
2021/11/20 11:59:42;;;;;;;7.23;5.07;;;11.70;99.90;;;;;;4974058;28;20768;-82
2021/11/20 12:02:25;;;;;;;7.97;5.03;;;11.70;99.90;;;;;;4973586;28;20817;-82
2021/11/20 12:04:55;;;;;;;7.07;4.97;;;11.70;99.90;;;;;;4974115;28;20449;-81
2021/11/20 12:07:24;;;;;;;9.23;5.87;;;11.70;99.90;;;;;;4973923;28;20552;-82
2021/11/20 12:09:52;;;;;;;10.47;5.67;;;11.70;99.90;;;;;;4973205;28;20429;-82
2021/11/20 12:12:33;;;;;;;9.33;4.77;;;11.70;99.90;;;;;;4973830;28;20422;-82
2021/11/20 12:15:41;;;;;;;6.93;6.07;;;11.70;99.90;;;;;;4973901;28;20484;-81
2021/11/20 12:18:34;;;;;;;8.47;6.17;;;11.70;99.90;;;;;;4973500;28;20883;-81
2021/11/20 12:21:40;;;;;;;8.27;5.57;;;11.70;99.90;;;;;;4973861;28;20751;-81
2021/11/20 12:24:33;;;;;;;8.20;6.80;;;11.60;99.90;;;;;;4988916;28;20440;-82
2021/11/20 12:27:22;;;;;;;7.53;6.27;;;11.60;99.90;;;;;;4993242;28;20424;-81
2021/11/20 12:30:04;;;;;;;10.17;6.53;;;11.50;99.90;;;;;;4975703;28;20464;-82
2021/11/20 12:33:01;;;;;;;9.57;7.90;;;11.50;99.90;;;;;;4987156;28;20430;-81
2021/11/20 12:36:05;;;;;;;9.93;7.27;;;11.50;99.90;;;;;;4981001;28;20816;-81
2021/11/20 12:38:48;;;;;;;12.83;8.90;;;11.50;99.90;;;;;;4992836;28;20557;-81
2021/11/20 12:41:25;;;;;;;12.70;9.03;;;11.50;99.90;;;;;;4992589;28;20400;-82
2021/11/20 12:44:09;;;;;;;12.83;8.97;;;11.50;99.90;;;;;;4992910;28;20446;-81
2021/11/20 12:47:11;;;;;;;11.77;8.67;;;11.60;99.90;;;;;;4992333;28;20959;-82
2021/11/20 12:50:00;;;;;;;9.83;8.83;;;11.60;99.90;;;;;;4992738;28;20412;-82
2021/11/20 12:52:47;;;;;;;12.80;9.33;;;11.60;99.90;;;;;;4992603;28;20405;-81
2021/11/20 12:55:18;;;;;;;10.40;9.30;;;11.60;99.90;;;;;;4992575;28;20765;-81
2021/11/20 12:58:05;;;;;;;11.33;9.00;;;11.60;99.90;;;;;;4992556;28;20563;-82
2021/11/20 13:00:35;;;;;;;12.80;10.60;;;11.60;99.90;;;;;;4992535;28;20495;-82
2021/11/20 13:03:23;;;;;;;15.43;11.30;;;11.60;99.90;;;;;;4992354;28;20411;-81
2021/11/20 13:05:58;;;;;;;12.80;10.60;;;11.60;99.90;;;;;;4992424;28;20482;-81
2021/11/20 13:08:38;;;;;;;14.50;10.00;;;11.60;99.90;;;;;;4992693;28;20795;-82